createdAt,value
2018-10-09T00:01:33.692Z,9.10
2018-10-09T00:04:04.415Z,11.80
2018-10-09T00:06:35.102Z,10.77
2018-10-09T00:09:08.170Z,13.73
2018-10-09T00:11:39.021Z,7.83
2018-10-09T00:14:09.708Z,6.93
2018-10-09T00:16:40.450Z,9.27
2018-10-09T00:19:11.177Z,10.47
2018-10-09T00:21:41.989Z,15.30
2018-10-09T00:24:12.642Z,14.37
2018-10-09T00:26:43.241Z,12.63
2018-10-09T00:29:14.187Z,16.00
2018-10-09T00:31:45.174Z,13.40
2018-10-09T00:34:16.107Z,13.47
2018-10-09T00:36:46.991Z,13.50
2018-10-09T00:39:17.797Z,14.53
2018-10-09T00:41:49.325Z,8.97
2018-10-09T00:44:20.253Z,11.13
2018-10-09T00:46:51.148Z,14.33
2018-10-09T00:49:21.794Z,14.60
2018-10-09T00:51:52.428Z,10.77
2018-10-09T00:54:23.229Z,16.97
2018-10-09T00:56:53.911Z,14.70
2018-10-09T00:59:24.629Z,15.77
2018-10-09T01:01:55.133Z,17.03
2018-10-09T01:04:25.824Z,16.50
2018-10-09T01:06:56.540Z,15.53
2018-10-09T01:09:27.633Z,15.40
2018-10-09T01:11:58.439Z,18.80
2018-10-09T01:14:29.287Z,14.03
2018-10-09T01:17:00.235Z,16.50
2018-10-09T01:19:31.198Z,11.17
2018-10-09T01:22:02.127Z,14.90
2018-10-09T01:24:32.799Z,13.93
2018-10-09T01:27:03.537Z,12.97
2018-10-09T01:29:34.209Z,11.93
2018-10-09T01:32:05.126Z,10.73
2018-10-09T01:34:36.285Z,10.07
2018-10-09T01:37:07.217Z,12.07
2018-10-09T01:39:39.099Z,10.67
2018-10-09T01:42:10.164Z,14.03
2018-10-09T01:44:40.960Z,13.37
2018-10-09T01:47:11.777Z,14.20
2018-10-09T01:49:42.670Z,12.17
2018-10-09T01:52:13.284Z,13.83
2018-10-09T01:54:43.964Z,18.03
2018-10-09T01:57:14.810Z,16.60
2018-10-09T01:59:45.442Z,14.47
2018-10-09T02:02:16.243Z,19.00
2018-10-09T02:04:47.081Z,17.27
2018-10-09T02:07:17.892Z,19.77
2018-10-09T02:09:48.791Z,23.03
2018-10-09T02:12:19.847Z,20.20
2018-10-09T02:14:51.203Z,19.20
2018-10-09T02:17:22.321Z,17.60
2018-10-09T02:19:53.214Z,13.07
2018-10-09T02:22:24.060Z,12.43
2018-10-09T02:24:54.888Z,15.70
2018-10-09T02:27:25.785Z,13.60
2018-10-09T02:29:56.379Z,13.90
2018-10-09T02:32:27.089Z,14.43
2018-10-09T02:34:57.775Z,14.10
2018-10-09T02:37:28.521Z,11.90
2018-10-09T02:39:59.323Z,13.00
2018-10-09T02:42:30.239Z,19.70
2018-10-09T02:45:01.415Z,21.37
2018-10-09T02:47:32.198Z,10.20
2018-10-09T02:50:02.998Z,9.37
2018-10-09T02:52:33.692Z,9.40
2018-10-09T02:55:04.775Z,39.87
2018-10-09T02:57:35.515Z,24.07
2018-10-09T03:00:06.518Z,13.90
2018-10-09T03:02:37.366Z,12.73
2018-10-09T03:05:08.528Z,14.13
2018-10-09T03:07:39.280Z,13.83
2018-10-09T03:10:09.993Z,15.20
2018-10-09T03:12:40.913Z,15.27
2018-10-09T03:15:11.795Z,26.07
2018-10-09T03:17:42.510Z,36.40
2018-10-09T03:20:13.132Z,18.60
2018-10-09T03:22:44.216Z,17.93
2018-10-09T03:25:15.109Z,17.80
2018-10-09T03:27:45.783Z,24.80
2018-10-09T03:30:16.834Z,19.70
2018-10-09T03:32:47.772Z,21.30
2018-10-09T03:35:18.731Z,33.90
2018-10-09T03:37:49.377Z,27.67
2018-10-09T03:40:20.240Z,20.67
2018-10-09T03:42:50.895Z,20.27
2018-10-09T03:45:21.731Z,19.77
2018-10-09T03:47:52.441Z,17.20
2018-10-09T03:50:23.113Z,15.57
2018-10-09T03:52:54.169Z,13.87
2018-10-09T03:55:24.978Z,15.47
2018-10-09T03:57:55.885Z,14.87
2018-10-09T04:00:26.735Z,14.37
2018-10-09T04:02:58.172Z,15.63
2018-10-09T04:05:28.977Z,14.90
2018-10-09T04:08:00.216Z,19.03
2018-10-09T04:10:30.964Z,17.73
2018-10-09T04:13:02.847Z,35.20
2018-10-09T04:15:33.718Z,41.53
2018-10-09T04:18:04.442Z,91.40
2018-10-09T04:20:35.970Z,119.03
2018-10-09T04:23:06.987Z,148.17
2018-10-09T04:25:37.729Z,64.77
2018-10-09T04:28:08.720Z,99.10
2018-10-09T04:30:39.593Z,80.53
2018-10-09T04:33:10.717Z,60.37
2018-10-09T04:35:42.950Z,72.83
2018-10-09T04:38:13.703Z,75.90
2018-10-09T04:40:44.889Z,76.70
2018-10-09T04:43:16.552Z,35.20
2018-10-09T04:45:47.922Z,108.93
2018-10-09T04:48:19.396Z,66.70
2018-10-09T04:50:50.257Z,72.50
2018-10-09T04:53:20.963Z,22.73
2018-10-09T04:55:51.609Z,23.73
2018-10-09T04:58:23.246Z,23.77
2018-10-09T05:00:54.044Z,35.27
2018-10-09T05:03:25.247Z,35.77
2018-10-09T05:05:56.024Z,23.87
2018-10-09T05:08:26.699Z,22.37
2018-10-09T05:10:57.816Z,20.63
2018-10-09T05:13:28.768Z,23.67
2018-10-09T05:15:59.718Z,39.00
2018-10-09T05:18:30.685Z,46.83
2018-10-09T05:21:01.347Z,48.27
2018-10-09T05:23:32.234Z,35.20
2018-10-09T05:26:03.339Z,48.73
2018-10-09T05:28:34.318Z,101.37
2018-10-09T05:31:05.386Z,130.80
2018-10-09T05:33:36.705Z,116.07
2018-10-09T05:36:07.897Z,115.77
2018-10-09T05:38:38.857Z,55.53
2018-10-09T05:41:09.726Z,173.63
2018-10-09T05:43:40.656Z,211.20
2018-10-09T05:46:11.574Z,251.47
2018-10-09T05:48:42.356Z,142.70
2018-10-09T05:51:13.265Z,181.93
2018-10-09T05:53:44.608Z,323.97
2018-10-09T05:56:15.722Z,185.53
2018-10-09T05:58:46.805Z,220.93
2018-10-09T06:01:17.643Z,231.53
2018-10-09T06:03:48.971Z,234.73
2018-10-09T06:06:19.966Z,176.90
2018-10-09T06:08:50.693Z,154.90
2018-10-09T06:11:21.528Z,347.83
2018-10-09T06:13:52.473Z,191.43
2018-10-09T06:16:23.350Z,364.90
2018-10-09T06:18:54.193Z,203.97
2018-10-09T06:21:25.324Z,152.30
2018-10-09T06:23:56.267Z,93.33
2018-10-09T06:26:27.193Z,84.37
2018-10-09T06:28:57.957Z,86.17
2018-10-09T06:31:28.851Z,96.77
2018-10-09T06:33:59.852Z,99.33
2018-10-09T06:36:31.311Z,109.00
2018-10-09T06:39:02.108Z,109.90
2018-10-09T06:41:32.806Z,104.60
2018-10-09T06:44:03.681Z,138.13
2018-10-09T06:46:34.982Z,190.57
2018-10-09T06:49:05.975Z,105.97
2018-10-09T06:51:36.843Z,148.00
2018-10-09T06:54:08.590Z,162.67
2018-10-09T06:56:39.795Z,91.17
2018-10-09T06:59:11.625Z,130.43
2018-10-09T07:01:42.783Z,79.10
2018-10-09T07:04:14.356Z,50.93
2018-10-09T07:06:45.229Z,119.57
2018-10-09T07:09:16.219Z,79.33
2018-10-09T07:11:47.090Z,70.63
2018-10-09T07:14:17.825Z,86.03
2018-10-09T07:16:48.481Z,97.83
2018-10-09T07:19:19.509Z,105.93
2018-10-09T07:21:50.294Z,58.47
2018-10-09T07:24:21.856Z,23.50
2018-10-09T07:26:53.923Z,31.17
2018-10-09T07:29:24.855Z,25.40
2018-10-09T07:31:55.809Z,21.43
2018-10-09T07:34:27.131Z,20.87
2018-10-09T07:36:58.771Z,19.77
2018-10-09T07:39:31.933Z,19.20
2018-10-09T07:42:02.982Z,18.07
2018-10-09T07:44:34.217Z,18.67
2018-10-09T07:47:05.301Z,19.20
2018-10-09T07:49:36.488Z,18.37
2018-10-09T07:52:08.953Z,18.20
2018-10-09T07:54:40.447Z,18.20
2018-10-09T07:57:12.476Z,17.53
2018-10-09T07:59:43.528Z,19.07
2018-10-09T08:02:14.473Z,18.27
2018-10-09T08:04:45.520Z,17.77
2018-10-09T08:07:23.350Z,23.80
2018-10-09T08:09:54.150Z,18.23
2018-10-09T08:12:25.103Z,19.87
2018-10-09T08:14:56.061Z,19.23
2018-10-09T08:17:26.964Z,20.73
2018-10-09T08:19:58.012Z,25.50
2018-10-09T08:22:28.724Z,21.33
2018-10-09T08:25:00.022Z,19.83
2018-10-09T08:27:31.796Z,18.40
2018-10-09T08:30:02.628Z,18.60
2018-10-09T08:32:33.693Z,16.70
2018-10-09T08:35:05.161Z,16.77
2018-10-09T08:37:36.917Z,16.20
2018-10-09T08:40:08.201Z,15.30
2018-10-09T08:42:40.195Z,15.80
2018-10-09T08:45:11.385Z,11.93
2018-10-09T08:47:42.676Z,11.30
2018-10-09T08:50:13.887Z,9.47
2018-10-09T08:52:44.706Z,9.70
2018-10-09T08:55:15.888Z,8.53
2018-10-09T08:57:46.703Z,10.93
2018-10-09T09:00:17.541Z,9.53
2018-10-09T09:02:48.264Z,8.57
2018-10-09T09:05:19.998Z,9.63
2018-10-09T09:07:51.529Z,18.93
2018-10-09T09:10:22.207Z,8.80
2018-10-09T09:12:55.015Z,6.90
2018-10-09T09:15:28.430Z,10.73
2018-10-09T09:18:01.902Z,9.17
2018-10-09T09:20:33.384Z,8.40
2018-10-09T09:23:04.503Z,17.33
2018-10-09T09:25:35.866Z,8.87
2018-10-09T09:28:07.932Z,7.97
2018-10-09T09:30:38.533Z,7.93
2018-10-09T09:33:09.486Z,7.80
2018-10-09T09:35:41.003Z,6.53
2018-10-09T09:38:15.205Z,6.87
2018-10-09T09:40:49.307Z,5.27
2018-10-09T09:43:20.479Z,6.00
2018-10-09T09:45:51.825Z,8.33
2018-10-09T09:48:22.887Z,5.20
2018-10-09T09:50:53.567Z,5.80
2018-10-09T09:53:23.975Z,4.00
2018-10-09T09:55:54.937Z,5.70
2018-10-09T09:58:25.805Z,4.03
2018-10-09T10:00:58.667Z,6.97
2018-10-09T10:03:29.472Z,6.60
2018-10-09T10:06:00.467Z,6.77
2018-10-09T10:08:31.333Z,3.93
2018-10-09T10:11:02.979Z,4.70
2018-10-09T10:13:33.964Z,4.83
2018-10-09T10:16:05.088Z,4.93
2018-10-09T10:18:36.086Z,10.87
2018-10-09T10:21:06.995Z,4.97
2018-10-09T10:23:37.894Z,9.10
2018-10-09T10:26:08.752Z,8.00
2018-10-09T10:28:39.776Z,4.20
2018-10-09T10:31:10.707Z,4.77
2018-10-09T10:33:41.398Z,5.30
2018-10-09T10:36:12.075Z,7.00
2018-10-09T10:38:42.645Z,6.40
2018-10-09T10:41:13.758Z,4.13
2018-10-09T10:43:44.403Z,5.00
2018-10-09T10:46:15.230Z,6.17
2018-10-09T10:48:58.408Z,8.07
2018-10-09T10:51:29.806Z,4.00
2018-10-09T10:54:01.802Z,4.40
2018-10-09T10:56:34.202Z,5.00
2018-10-09T10:59:05.319Z,3.57
2018-10-09T11:01:36.385Z,3.40
2018-10-09T11:04:08.253Z,8.37
2018-10-09T11:06:38.968Z,4.47
2018-10-09T11:09:12.167Z,5.23
2018-10-09T11:11:43.223Z,4.00
2018-10-09T11:14:14.662Z,6.63
2018-10-09T11:16:46.765Z,5.07
2018-10-09T11:19:17.632Z,4.33
2018-10-09T11:21:49.081Z,4.30
2018-10-09T11:24:20.720Z,4.10
2018-10-09T11:26:52.085Z,4.47
2018-10-09T11:29:24.164Z,4.87
2018-10-09T11:31:55.708Z,3.23
2018-10-09T11:34:27.100Z,3.73
2018-10-09T11:36:58.789Z,43.80
2018-10-09T11:39:29.516Z,45.53
2018-10-09T11:42:00.508Z,4.50
2018-10-09T11:44:31.963Z,3.43
2018-10-09T11:47:02.850Z,3.37
2018-10-09T11:49:33.859Z,6.97
2018-10-09T11:52:05.057Z,5.63
2018-10-09T11:54:36.102Z,3.50
2018-10-09T11:57:07.524Z,6.50
2018-10-09T11:59:38.606Z,4.27
2018-10-09T12:02:09.529Z,3.00
2018-10-09T12:04:40.203Z,5.10
2018-10-09T12:07:11.088Z,3.43
2018-10-09T12:09:42.535Z,3.20
2018-10-09T12:12:13.866Z,3.47
2018-10-09T12:14:44.818Z,3.97
2018-10-09T12:17:15.845Z,9.00
2018-10-09T12:19:46.925Z,3.47
2018-10-09T12:22:18.002Z,4.60
2018-10-09T12:24:48.975Z,4.87
2018-10-09T12:27:20.129Z,5.83
2018-10-09T12:29:51.085Z,3.53
2018-10-09T12:32:22.368Z,5.50
2018-10-09T12:34:54.218Z,16.20
2018-10-09T12:37:25.057Z,5.60
2018-10-09T12:39:57.346Z,6.33
2018-10-09T12:42:28.251Z,10.23
2018-10-09T12:44:59.383Z,3.07
2018-10-09T12:47:30.155Z,5.03
2018-10-09T12:50:01.490Z,4.87
2018-10-09T12:52:32.992Z,8.63
2018-10-09T12:55:04.038Z,18.90
2018-10-09T12:57:35.111Z,9.77
2018-10-09T13:00:06.692Z,9.43
2018-10-09T13:02:38.733Z,3.23
2018-10-09T13:05:10.086Z,3.50
2018-10-09T13:07:41.746Z,2.70
2018-10-09T13:10:13.106Z,2.33
2018-10-09T13:12:44.175Z,6.80
2018-10-09T13:15:15.810Z,2.50
2018-10-09T13:17:46.777Z,8.97
2018-10-09T13:20:18.934Z,7.17
2018-10-09T13:22:50.913Z,5.17
2018-10-09T13:25:21.835Z,3.73
2018-10-09T13:27:53.545Z,3.53
2018-10-09T13:30:24.556Z,4.67
2018-10-09T13:32:55.340Z,2.60
2018-10-09T13:35:26.513Z,2.30
2018-10-09T13:37:59.119Z,2.83
2018-10-09T13:40:30.084Z,2.60
2018-10-09T13:43:01.471Z,3.10
2018-10-09T13:45:33.223Z,2.43
2018-10-09T13:48:04.206Z,4.43
2018-10-09T13:50:35.281Z,2.50
2018-10-09T13:53:06.360Z,2.10
2018-10-09T13:55:37.454Z,2.10
2018-10-09T13:58:08.341Z,2.80
2018-10-09T14:00:39.383Z,2.40
2018-10-09T14:03:10.525Z,2.10
2018-10-09T14:05:41.639Z,2.40
2018-10-09T14:08:12.504Z,3.40
2018-10-09T14:10:43.591Z,2.60
2018-10-09T14:13:14.679Z,4.63
2018-10-09T14:15:46.603Z,2.50
2018-10-09T14:18:17.743Z,4.07
2018-10-09T14:20:48.751Z,3.10
2018-10-09T14:23:19.819Z,3.80
2018-10-09T14:25:51.054Z,2.77
2018-10-09T14:28:22.062Z,3.90
2018-10-09T14:30:53.177Z,2.87
2018-10-09T14:33:23.994Z,2.73
2018-10-09T14:35:54.847Z,2.53
2018-10-09T14:38:26.112Z,4.30
2018-10-09T14:40:57.557Z,2.87
2018-10-09T14:43:28.642Z,2.60
2018-10-09T14:45:59.956Z,4.63
2018-10-09T14:48:31.277Z,4.77
2018-10-09T14:51:02.395Z,2.60
2018-10-09T14:53:37.494Z,2.50
2018-10-09T14:56:08.786Z,4.83
2018-10-09T14:58:40.547Z,10.37
2018-10-09T15:01:11.876Z,9.57
2018-10-09T15:03:43.101Z,14.83
2018-10-09T15:06:14.317Z,8.00
2018-10-09T15:08:45.563Z,5.40
2018-10-09T15:11:17.207Z,7.77
2018-10-09T15:13:48.521Z,3.30
2018-10-09T15:16:19.548Z,8.17
2018-10-09T15:18:50.770Z,9.00
2018-10-09T15:21:21.869Z,8.70
2018-10-09T15:23:53.360Z,4.17
2018-10-09T15:26:24.854Z,5.57
2018-10-09T15:28:59.549Z,4.60
2018-10-09T15:31:30.744Z,5.37
2018-10-09T15:34:02.431Z,10.37
2018-10-09T15:36:33.706Z,3.63
2018-10-09T15:39:06.773Z,3.50
2018-10-09T15:41:38.933Z,3.47
2018-10-09T15:44:10.290Z,6.60
2018-10-09T15:46:41.279Z,2.43
2018-10-09T15:49:13.277Z,2.50
2018-10-09T15:51:45.023Z,6.37
2018-10-09T15:54:17.433Z,3.87
2018-10-09T15:56:48.636Z,4.70
2018-10-09T15:59:20.333Z,7.60
2018-10-09T16:01:52.531Z,3.40
2018-10-09T16:04:23.945Z,3.67
2018-10-09T16:06:55.323Z,3.30
2018-10-09T16:09:26.746Z,5.80
2018-10-09T16:11:58.132Z,3.47
2018-10-09T16:14:29.303Z,5.57
2018-10-09T16:17:01.491Z,5.80
2018-10-09T16:19:32.527Z,4.07
2018-10-09T16:22:04.094Z,3.00
2018-10-09T16:24:35.197Z,5.83
2018-10-09T16:27:08.355Z,5.00
2018-10-09T16:29:39.139Z,5.93
2018-10-09T16:32:11.084Z,6.13
2018-10-09T16:34:42.317Z,12.60
2018-10-09T16:37:13.397Z,12.10
2018-10-09T16:39:44.399Z,14.63
2018-10-09T16:42:15.343Z,11.83
2018-10-09T16:44:46.181Z,12.27
2018-10-09T16:47:17.065Z,15.83
2018-10-09T16:49:47.875Z,15.03
2018-10-09T16:52:20.116Z,17.03
2018-10-09T16:54:52.532Z,16.00
2018-10-09T16:57:23.600Z,15.40
2018-10-09T16:59:55.146Z,15.70
2018-10-09T17:02:26.202Z,12.53
2018-10-09T17:04:57.469Z,15.10
2018-10-09T17:07:29.315Z,11.47
2018-10-09T17:10:00.383Z,12.63
2018-10-09T17:12:32.127Z,9.10
2018-10-09T17:15:03.768Z,13.33
2018-10-09T17:17:35.433Z,12.97
2018-10-09T17:20:07.689Z,13.90
2018-10-09T17:22:39.864Z,9.27
2018-10-09T17:25:13.394Z,11.17
2018-10-09T17:27:45.959Z,11.87
2018-10-09T17:30:18.887Z,11.63
2018-10-09T17:32:51.736Z,10.87
2018-10-09T17:35:24.509Z,8.30
2018-10-09T17:37:56.876Z,8.67
2018-10-09T17:40:30.524Z,7.10
2018-10-09T17:43:03.972Z,8.73
2018-10-09T17:45:36.204Z,7.70
2018-10-09T17:48:08.359Z,10.70
2018-10-09T17:50:40.774Z,10.30
2018-10-09T17:53:13.555Z,9.07
2018-10-09T17:55:46.063Z,9.13
2018-10-09T17:58:18.926Z,11.17
2018-10-09T18:00:53.363Z,9.60
2018-10-09T18:03:26.509Z,9.43
2018-10-09T18:05:58.830Z,10.70
2018-10-09T18:08:31.670Z,8.43
2018-10-09T18:11:10.604Z,10.80
2018-10-09T18:13:43.160Z,11.07
2018-10-09T18:16:16.240Z,12.47
2018-10-09T18:18:48.940Z,14.07
2018-10-09T18:21:21.859Z,10.00
2018-10-09T18:23:54.297Z,15.43
2018-10-09T18:26:27.556Z,11.63
2018-10-09T18:29:00.329Z,8.07
2018-10-09T18:31:32.910Z,7.37
2018-10-09T18:34:06.421Z,7.90
2018-10-09T18:36:40.726Z,12.97
2018-10-09T18:39:15.978Z,6.27
2018-10-09T18:41:51.661Z,10.30
2018-10-09T18:44:25.766Z,6.93
2018-10-09T18:47:00.287Z,11.63
2018-10-09T18:49:33.316Z,10.37
2018-10-09T18:52:06.792Z,10.43
2018-10-09T18:54:41.266Z,9.33
2018-10-09T18:57:17.493Z,8.77
2018-10-09T18:59:50.773Z,10.77
2018-10-09T19:02:24.357Z,13.77
2018-10-09T19:05:00.153Z,8.03
2018-10-09T19:07:35.252Z,9.90
2018-10-09T19:10:10.500Z,10.00
2018-10-09T19:12:43.363Z,9.97
2018-10-09T19:15:16.619Z,12.13
2018-10-09T19:17:49.460Z,8.00
2018-10-09T19:20:21.944Z,11.10
2018-10-09T19:22:54.394Z,10.87
2018-10-09T19:25:27.084Z,11.20
2018-10-09T19:28:00.043Z,11.53
2018-10-09T19:30:33.221Z,25.27
2018-10-09T19:33:05.998Z,17.03
2018-10-09T19:35:39.355Z,11.63
2018-10-09T19:38:12.792Z,10.53
2018-10-09T19:40:45.762Z,9.37
2018-10-09T19:43:18.763Z,10.53
2018-10-09T19:45:52.865Z,32.13
2018-10-09T19:48:25.425Z,579.57
2018-10-09T19:50:58.469Z,13.93
2018-10-09T19:53:32.106Z,10.03
2018-10-09T19:56:03.775Z,14.00
2018-10-09T19:58:36.133Z,39.13
2018-10-09T20:01:09.401Z,26.87
2018-10-09T20:03:42.286Z,14.17
2018-10-09T20:06:14.584Z,14.90
2018-10-09T20:08:46.055Z,15.47
2018-10-09T20:11:23.558Z,23.67
2018-10-09T20:13:54.690Z,21.90
2018-10-09T20:16:26.575Z,40.67
2018-10-09T20:18:57.966Z,52.67
2018-10-09T20:21:29.370Z,28.37
2018-10-09T20:24:00.341Z,22.93
2018-10-09T20:26:31.355Z,19.93
2018-10-09T20:29:02.679Z,13.67
2018-10-09T20:31:33.930Z,12.50
2018-10-09T20:34:04.936Z,22.53
2018-10-09T20:36:36.542Z,15.07
2018-10-09T20:39:09.068Z,16.13
2018-10-09T20:41:40.550Z,14.83
2018-10-09T20:44:11.416Z,13.17
2018-10-09T20:46:42.730Z,13.33
2018-10-09T20:49:14.106Z,12.80
2018-10-09T20:51:45.611Z,11.70
2018-10-09T20:54:16.633Z,11.33
2018-10-09T20:56:47.815Z,11.33
2018-10-09T20:59:18.753Z,11.90
2018-10-09T21:01:49.838Z,11.87
2018-10-09T21:04:21.480Z,11.07
2018-10-09T21:06:52.961Z,12.17
2018-10-09T21:09:24.450Z,14.33
2018-10-09T21:11:55.178Z,15.70
2018-10-09T21:14:26.039Z,12.90
2018-10-09T21:16:56.926Z,12.33
2018-10-09T21:19:35.013Z,12.47
2018-10-09T21:22:06.309Z,13.63
2018-10-09T21:24:37.243Z,13.10
2018-10-09T21:27:08.471Z,11.87
2018-10-09T21:32:57.846Z,12.13
2018-10-09T21:35:28.983Z,11.13
2018-10-09T21:37:59.868Z,11.83
2018-10-09T21:40:30.769Z,11.93
2018-10-09T21:43:01.417Z,12.17
2018-10-09T21:45:32.340Z,12.47
2018-10-09T21:48:04.295Z,11.87
2018-10-09T21:50:35.104Z,11.97
2018-10-09T21:53:05.901Z,11.27
2018-10-09T21:55:36.812Z,16.77
2018-10-09T21:58:07.761Z,14.53
2018-10-09T22:00:43.235Z,12.17
2018-10-09T22:03:14.055Z,12.50
2018-10-09T22:05:45.057Z,12.10
2018-10-09T22:08:15.975Z,12.70
2018-10-09T22:10:46.843Z,13.03
2018-10-09T22:13:38.924Z,11.10
2018-10-09T22:16:12.806Z,12.07
2018-10-09T22:18:43.745Z,12.93
2018-10-09T22:21:14.719Z,24.60
2018-10-09T22:23:45.768Z,27.97
2018-10-09T22:26:16.702Z,26.13
2018-10-09T22:28:47.744Z,19.70
2018-10-09T22:31:18.642Z,21.03
2018-10-09T22:33:49.301Z,17.97
2018-10-09T22:36:20.200Z,19.53
2018-10-09T22:38:51.102Z,18.57
2018-10-09T22:41:22.165Z,16.97
2018-10-09T22:43:52.899Z,13.50
2018-10-09T22:46:24.043Z,14.87
2018-10-09T22:48:55.003Z,17.80
2018-10-09T22:51:26.966Z,16.17
2018-10-09T22:53:57.739Z,18.50
2018-10-09T22:56:28.313Z,14.97
2018-10-09T22:58:59.325Z,16.27
2018-10-09T23:01:30.028Z,13.20
2018-10-09T23:04:01.013Z,13.53
2018-10-09T23:06:32.294Z,13.10
2018-10-09T23:09:03.295Z,12.77
2018-10-09T23:11:34.166Z,13.47
2018-10-09T23:14:05.524Z,15.30
2018-10-09T23:16:36.368Z,14.93
2018-10-09T23:19:07.507Z,13.17
2018-10-09T23:21:38.179Z,13.77
2018-10-09T23:24:09.287Z,13.83
2018-10-09T23:26:40.268Z,15.20
2018-10-09T23:29:11.122Z,14.60
2018-10-09T23:31:42.101Z,18.63
2018-10-09T23:34:13.179Z,21.63
2018-10-09T23:36:43.991Z,23.77
2018-10-09T23:39:14.821Z,20.93
2018-10-09T23:41:45.562Z,19.97
2018-10-09T23:44:16.404Z,16.83
2018-10-09T23:46:48.152Z,15.00
2018-10-09T23:49:18.989Z,15.57
2018-10-09T23:51:49.970Z,20.77
2018-10-09T23:54:21.061Z,19.77
2018-10-09T23:56:51.704Z,20.77
2018-10-09T23:59:22.474Z,22.20
